• Join FlightAware (Why Join?)
  • Login
  • US Flag 
09:52PM EDT


 

Airport Tracker/Info


-or-


 

Live Flight TrackerFlight Track Log ✈ IBE488 ✈ 03-May-2013 ✈ LEMD / MAD - LEAS / OVD

Flight Track Log - Related Links

Times and Time Zones

All times are in EDT time to prevent confusion due to time zone crossing. See the IBE488 flight status page for this flight to view local times or setup timezone preferences in your user account.

Time Position Orientation Groundspeed Altitude Reporting Facility
EDT Latitude Longitude Course Direction KTS MPH feet Rate Location/Type
06:23AM 41.5215 -4.3622 330° Northwest  Level Estimated
06:24AM 41.6069 -4.4296 329° Northwest  Level Estimated
06:25AM 41.6923 -4.4972 329° Northwest  Level Estimated
06:26AM 41.7776 -4.5650 329° Northwest  Level Estimated
06:27AM 41.8629 -4.6330 329° Northwest  Level Estimated
06:28AM 41.9481 -4.7011 329° Northwest  Level Estimated
06:29AM 42.0334 -4.7694 329° Northwest  Level Estimated
06:30AM 42.1185 -4.8379 329° Northwest  Level Estimated
06:31AM 42.2037 -4.9066 329° Northwest  Level Estimated
06:32AM 42.2887 -4.9755 329° Northwest  Level Estimated
06:33AM 42.3738 -5.0446 329° Northwest  Level Estimated
06:34AM 42.4588 -5.1138 329° Northwest  Level Estimated
06:35AM 42.5438 -5.1833 329° Northwest  Level Estimated
06:36AM 42.6287 -5.2529 329° Northwest  Level Estimated
06:37AM 42.7136 -5.3227 329° Northwest  Level Estimated
06:38AM 42.7984 -5.3927 329° Northwest  Level Estimated
06:39AM 42.8832 -5.4629 329° Northwest  Level Estimated
06:40AM 42.9679 -5.5333 329° Northwest  Level Estimated
06:41AM 43.0527 -5.6039 329° Northwest  Level Estimated
06:42AM 43.1373 -5.6747 329° Northwest  Level Estimated
06:43AM 43.2219 -5.7457 329° Northwest  Level Estimated
06:44AM 43.3065 -5.8168 329° Northwest  Level Estimated
06:45AM 43.3910 -5.8882 328° Northwest  Level Estimated
06:46AM 43.4755 -5.9598 328° Northwest  Level Estimated
06:47AM 43.5600 -6.0316 328° Northwest  Level Estimated
06:48AM 43.5636 -6.0346 328° Northwest  Level Estimated
06:49AM 43.5636 -6.0346 206° Southwest  Level Estimated
06:50AM 43.5636 -6.0346 206° Southwest  Level Estimated
06:51AM 43.5636 -6.0346 206° Southwest  Level Estimated
06:52AM 43.5636 -6.0346 206° Southwest  Level Estimated
06:53AM 43.5636 -6.0346 206° Southwest  Level Estimated
06:54AM 43.5636 -6.0346 206° Southwest  Level Estimated
06:55AM 43.5636 -6.0346 206° Southwest  Level Estimated
06:56AM 43.5636 -6.0346 206° Southwest  Level Estimated
06:57AM 43.5636 -6.0346 206° Southwest  Level Estimated
06:58AM 43.5636 -6.0346 206° Southwest  Level Estimated
06:59AM 43.5636 -6.0346 206° Southwest  Level Estimated
07:00AM 43.5636 -6.0346 206° Southwest  Level Estimated
07:01AM 43.5636 -6.0346 206° Southwest  Level Estimated
07:02AM 43.5636 -6.0346 206° Southwest  Level Estimated
07:03AM 43.5636 -6.0346 206° Southwest  Level Estimated